sensor_id;sensor_type;location;lat;lon;timestamp;P1;P2;P0
56175;PMS5003;63065;51.082;17.016;2023-04-07T00:00:46;44;43;
56175;PMS5003;63065;51.082;17.016;2023-04-07T00:03:12;49;45;
56175;PMS5003;63065;51.082;17.016;2023-04-07T00:05:37;49;43;
56175;PMS5003;63065;51.082;17.016;2023-04-07T00:08:03;52;45;
56175;PMS5003;63065;51.082;17.016;2023-04-07T00:10:28;45;44;
56175;PMS5003;63065;51.082;17.016;2023-04-07T00:12:53;54;49;
56175;PMS5003;63065;51.082;17.016;2023-04-07T00:15:19;52;47;
56175;PMS5003;63065;51.082;17.016;2023-04-07T00:17:44;50;43;
56175;PMS5003;63065;51.082;17.016;2023-04-07T00:20:11;48;45;
56175;PMS5003;63065;51.082;17.016;2023-04-07T00:22:35;48;46;
56175;PMS5003;63065;51.082;17.016;2023-04-07T00:25:00;47;45;
56175;PMS5003;63065;51.082;17.016;2023-04-07T00:27:26;47;44;
56175;PMS5003;63065;51.082;17.016;2023-04-07T00:29:51;55;48;
56175;PMS5003;63065;51.082;17.016;2023-04-07T00:32:16;43;42;
56175;PMS5003;63065;51.082;17.016;2023-04-07T00:34:42;45;42;
56175;PMS5003;63065;51.082;17.016;2023-04-07T00:37:08;40;40;
56175;PMS5003;63065;51.082;17.016;2023-04-07T00:39:34;41;39;
56175;PMS5003;63065;51.082;17.016;2023-04-07T00:41:59;51;43;
56175;PMS5003;63065;51.082;17.016;2023-04-07T00:44:24;46;46;
56175;PMS5003;63065;51.082;17.016;2023-04-07T00:46:50;50;43;
56175;PMS5003;63065;51.082;17.016;2023-04-07T00:49:16;44;40;
56175;PMS5003;63065;51.082;17.016;2023-04-07T00:51:41;44;42;
56175;PMS5003;63065;51.082;17.016;2023-04-07T00:54:06;37;37;
56175;PMS5003;63065;51.082;17.016;2023-04-07T00:56:31;50;48;
56175;PMS5003;63065;51.082;17.016;2023-04-07T00:58:56;44;43;
56175;PMS5003;63065;51.082;17.016;2023-04-07T01:01:23;50;44;
56175;PMS5003;63065;51.082;17.016;2023-04-07T01:03:50;50;46;
56175;PMS5003;63065;51.082;17.016;2023-04-07T01:06:14;46;46;
56175;PMS5003;63065;51.082;17.016;2023-04-07T01:08:41;47;46;
56175;PMS5003;63065;51.082;17.016;2023-04-07T01:11:06;46;40;
56175;PMS5003;63065;51.082;17.016;2023-04-07T01:13:30;43;42;
56175;PMS5003;63065;51.082;17.016;2023-04-07T01:15:55;47;44;
56175;PMS5003;63065;51.082;17.016;2023-04-07T01:18:21;49;46;
56175;PMS5003;63065;51.082;17.016;2023-04-07T01:20:45;46;41;
56175;PMS5003;63065;51.082;17.016;2023-04-07T01:23:12;47;47;
56175;PMS5003;63065;51.082;17.016;2023-04-07T01:25:45;54;46;
56175;PMS5003;63065;51.082;17.016;2023-04-07T01:28:09;47;40;
56175;PMS5003;63065;51.082;17.016;2023-04-07T01:30:28;44;42;
56175;PMS5003;63065;51.082;17.016;2023-04-07T01:32:52;48;43;
56175;PMS5003;63065;51.082;17.016;2023-04-07T01:35:18;54;46;
56175;PMS5003;63065;51.082;17.016;2023-04-07T01:37:44;44;41;
56175;PMS5003;63065;51.082;17.016;2023-04-07T01:40:09;45;43;
56175;PMS5003;63065;51.082;17.016;2023-04-07T01:42:34;45;39;
56175;PMS5003;63065;51.082;17.016;2023-04-07T01:44:59;51;49;
56175;PMS5003;63065;51.082;17.016;2023-04-07T01:47:25;46;43;
56175;PMS5003;63065;51.082;17.016;2023-04-07T01:49:50;48;46;
56175;PMS5003;63065;51.082;17.016;2023-04-07T01:52:15;46;42;
56175;PMS5003;63065;51.082;17.016;2023-04-07T01:54:41;51;47;
56175;PMS5003;63065;51.082;17.016;2023-04-07T01:57:07;47;44;
56175;PMS5003;63065;51.082;17.016;2023-04-07T01:59:32;54;48;
56175;PMS5003;63065;51.082;17.016;2023-04-07T02:01:58;47;44;
56175;PMS5003;63065;51.082;17.016;2023-04-07T02:04:24;57;51;
56175;PMS5003;63065;51.082;17.016;2023-04-07T02:06:51;46;43;
56175;PMS5003;63065;51.082;17.016;2023-04-07T02:09:15;45;43;
56175;PMS5003;63065;51.082;17.016;2023-04-07T02:11:40;55;48;
56175;PMS5003;63065;51.082;17.016;2023-04-07T02:14:05;58;57;
56175;PMS5003;63065;51.082;17.016;2023-04-07T02:16:31;56;50;
56175;PMS5003;63065;51.082;17.016;2023-04-07T02:18:56;56;50;
56175;PMS5003;63065;51.082;17.016;2023-04-07T02:21:21;47;45;
56175;PMS5003;63065;51.082;17.016;2023-04-07T02:23:46;46;45;
56175;PMS5003;63065;51.082;17.016;2023-04-07T02:26:12;51;46;
56175;PMS5003;63065;51.082;17.016;2023-04-07T02:28:38;50;50;
56175;PMS5003;63065;51.082;17.016;2023-04-07T02:31:03;60;50;
56175;PMS5003;63065;51.082;17.016;2023-04-07T02:33:28;58;54;
56175;PMS5003;63065;51.082;17.016;2023-04-07T02:35:54;54;51;
56175;PMS5003;63065;51.082;17.016;2023-04-07T02:38:20;53;49;
56175;PMS5003;63065;51.082;17.016;2023-04-07T02:40:45;58;54;
56175;PMS5003;63065;51.082;17.016;2023-04-07T02:43:11;47;46;
56175;PMS5003;63065;51.082;17.016;2023-04-07T02:45:37;51;49;
56175;PMS5003;63065;51.082;17.016;2023-04-07T02:48:02;57;56;
56175;PMS5003;63065;51.082;17.016;2023-04-07T02:50:28;49;48;
56175;PMS5003;63065;51.082;17.016;2023-04-07T02:52:53;57;54;
56175;PMS5003;63065;51.082;17.016;2023-04-07T02:55:19;48;48;
56175;PMS5003;63065;51.082;17.016;2023-04-07T02:57:44;59;53;
56175;PMS5003;63065;51.082;17.016;2023-04-07T03:00:10;52;50;
56175;PMS5003;63065;51.082;17.016;2023-04-07T03:02:35;49;46;
56175;PMS5003;63065;51.082;17.016;2023-04-07T03:05:00;48;45;
56175;PMS5003;63065;51.082;17.016;2023-04-07T03:07:25;56;51;
56175;PMS5003;63065;51.082;17.016;2023-04-07T03:09:51;58;45;
56175;PMS5003;63065;51.082;17.016;2023-04-07T03:12:16;56;51;
56175;PMS5003;63065;51.082;17.016;2023-04-07T03:14:41;53;46;
56175;PMS5003;63065;51.082;17.016;2023-04-07T03:17:07;60;53;
56175;PMS5003;63065;51.082;17.016;2023-04-07T03:19:33;57;51;
56175;PMS5003;63065;51.082;17.016;2023-04-07T03:21:58;59;55;
56175;PMS5003;63065;51.082;17.016;2023-04-07T03:24:24;53;51;
56175;PMS5003;63065;51.082;17.016;2023-04-07T03:26:49;66;62;
56175;PMS5003;63065;51.082;17.016;2023-04-07T03:29:14;62;56;
56175;PMS5003;63065;51.082;17.016;2023-04-07T03:31:40;53;50;
56175;PMS5003;63065;51.082;17.016;2023-04-07T03:34:05;61;58;
56175;PMS5003;63065;51.082;17.016;2023-04-07T03:36:30;63;54;
56175;PMS5003;63065;51.082;17.016;2023-04-07T03:38:56;57;52;
56175;PMS5003;63065;51.082;17.016;2023-04-07T03:41:21;63;55;
56175;PMS5003;63065;51.082;17.016;2023-04-07T03:43:47;58;55;
56175;PMS5003;63065;51.082;17.016;2023-04-07T03:46:12;59;54;
56175;PMS5003;63065;51.082;17.016;2023-04-07T03:48:37;65;56;
56175;PMS5003;63065;51.082;17.016;2023-04-07T03:51:03;53;47;
56175;PMS5003;63065;51.082;17.016;2023-04-07T03:53:27;65;62;
56175;PMS5003;63065;51.082;17.016;2023-04-07T03:55:53;58;56;
56175;PMS5003;63065;51.082;17.016;2023-04-07T03:58:18;59;52;
56175;PMS5003;63065;51.082;17.016;2023-04-07T04:00:43;52;50;
56175;PMS5003;63065;51.082;17.016;2023-04-07T04:03:08;55;51;
56175;PMS5003;63065;51.082;17.016;2023-04-07T04:05:34;58;57;
56175;PMS5003;63065;51.082;17.016;2023-04-07T04:07:59;64;63;
56175;PMS5003;63065;51.082;17.016;2023-04-07T04:10:24;58;50;
56175;PMS5003;63065;51.082;17.016;2023-04-07T04:12:49;54;53;
56175;PMS5003;63065;51.082;17.016;2023-04-07T04:15:15;64;59;
56175;PMS5003;63065;51.082;17.016;2023-04-07T04:17:41;64;55;
56175;PMS5003;63065;51.082;17.016;2023-04-07T04:20:07;54;53;
56175;PMS5003;63065;51.082;17.016;2023-04-07T04:22:32;63;61;
56175;PMS5003;63065;51.082;17.016;2023-04-07T04:24:58;61;57;
56175;PMS5003;63065;51.082;17.016;2023-04-07T04:27:23;57;50;
56175;PMS5003;63065;51.082;17.016;2023-04-07T04:29:49;47;46;
56175;PMS5003;63065;51.082;17.016;2023-04-07T04:32:14;63;54;
56175;PMS5003;63065;51.082;17.016;2023-04-07T04:34:40;53;51;
56175;PMS5003;63065;51.082;17.016;2023-04-07T04:37:05;47;44;
56175;PMS5003;63065;51.082;17.016;2023-04-07T04:39:31;52;48;
56175;PMS5003;63065;51.082;17.016;2023-04-07T04:41:56;53;47;
56175;PMS5003;63065;51.082;17.016;2023-04-07T04:44:21;49;47;
56175;PMS5003;63065;51.082;17.016;2023-04-07T04:46:47;52;44;
56175;PMS5003;63065;51.082;17.016;2023-04-07T04:49:13;60;52;
56175;PMS5003;63065;51.082;17.016;2023-04-07T04:51:38;51;49;
56175;PMS5003;63065;51.082;17.016;2023-04-07T04:54:03;47;39;
56175;PMS5003;63065;51.082;17.016;2023-04-07T04:56:29;39;38;
56175;PMS5003;63065;51.082;17.016;2023-04-07T04:58:54;42;38;
56175;PMS5003;63065;51.082;17.016;2023-04-07T05:01:20;42;38;
56175;PMS5003;63065;51.082;17.016;2023-04-07T05:03:45;43;38;
56175;PMS5003;63065;51.082;17.016;2023-04-07T05:06:10;41;38;
56175;PMS5003;63065;51.082;17.016;2023-04-07T05:08:35;37;35;
56175;PMS5003;63065;51.082;17.016;2023-04-07T05:11:01;38;37;
56175;PMS5003;63065;51.082;17.016;2023-04-07T05:13:26;40;37;
56175;PMS5003;63065;51.082;17.016;2023-04-07T05:15:52;37;32;
56175;PMS5003;63065;51.082;17.016;2023-04-07T05:18:18;34;33;
56175;PMS5003;63065;51.082;17.016;2023-04-07T05:20:43;41;40;
56175;PMS5003;63065;51.082;17.016;2023-04-07T05:23:08;42;39;
56175;PMS5003;63065;51.082;17.016;2023-04-07T05:25:33;34;33;
56175;PMS5003;63065;51.082;17.016;2023-04-07T05:27:59;40;38;
56175;PMS5003;63065;51.082;17.016;2023-04-07T05:30:24;36;33;
56175;PMS5003;63065;51.082;17.016;2023-04-07T05:32:51;39;35;
56175;PMS5003;63065;51.082;17.016;2023-04-07T05:35:14;38;36;
56175;PMS5003;63065;51.082;17.016;2023-04-07T05:37:40;37;35;
56175;PMS5003;63065;51.082;17.016;2023-04-07T05:40:06;42;37;
56175;PMS5003;63065;51.082;17.016;2023-04-07T05:42:31;40;37;
56175;PMS5003;63065;51.082;17.016;2023-04-07T05:44:56;33;32;
56175;PMS5003;63065;51.082;17.016;2023-04-07T05:47:22;38;36;
56175;PMS5003;63065;51.082;17.016;2023-04-07T05:49:47;39;31;
56175;PMS5003;63065;51.082;17.016;2023-04-07T05:52:13;38;35;
56175;PMS5003;63065;51.082;17.016;2023-04-07T05:54:38;40;37;
56175;PMS5003;63065;51.082;17.016;2023-04-07T05:57:04;36;35;
56175;PMS5003;63065;51.082;17.016;2023-04-07T05:59:29;40;36;
56175;PMS5003;63065;51.082;17.016;2023-04-07T06:01:54;39;38;
56175;PMS5003;63065;51.082;17.016;2023-04-07T06:04:20;42;39;
56175;PMS5003;63065;51.082;17.016;2023-04-07T06:06:45;37;36;
56175;PMS5003;63065;51.082;17.016;2023-04-07T06:09:10;44;41;
56175;PMS5003;63065;51.082;17.016;2023-04-07T06:11:36;37;37;
56175;PMS5003;63065;51.082;17.016;2023-04-07T06:14:01;38;36;
56175;PMS5003;63065;51.082;17.016;2023-04-07T06:16:27;44;37;
56175;PMS5003;63065;51.082;17.016;2023-04-07T06:18:52;42;39;
56175;PMS5003;63065;51.082;17.016;2023-04-07T06:21:17;39;37;
56175;PMS5003;63065;51.082;17.016;2023-04-07T06:23:43;49;40;
56175;PMS5003;63065;51.082;17.016;2023-04-07T06:26:09;39;37;
56175;PMS5003;63065;51.082;17.016;2023-04-07T06:28:34;44;40;
56175;PMS5003;63065;51.082;17.016;2023-04-07T06:30:59;45;38;
56175;PMS5003;63065;51.082;17.016;2023-04-07T06:33:24;44;41;
56175;PMS5003;63065;51.082;17.016;2023-04-07T06:35:50;42;39;
56175;PMS5003;63065;51.082;17.016;2023-04-07T06:38:15;37;35;
56175;PMS5003;63065;51.082;17.016;2023-04-07T06:40:41;45;38;
56175;PMS5003;63065;51.082;17.016;2023-04-07T06:43:07;37;35;
56175;PMS5003;63065;51.082;17.016;2023-04-07T06:45:32;44;36;
56175;PMS5003;63065;51.082;17.016;2023-04-07T06:47:57;40;35;
56175;PMS5003;63065;51.082;17.016;2023-04-07T06:50:23;33;33;
56175;PMS5003;63065;51.082;17.016;2023-04-07T06:52:49;40;36;
56175;PMS5003;63065;51.082;17.016;2023-04-07T06:55:14;40;34;
56175;PMS5003;63065;51.082;17.016;2023-04-07T06:57:40;37;34;
56175;PMS5003;63065;51.082;17.016;2023-04-07T07:00:05;44;38;
56175;PMS5003;63065;51.082;17.016;2023-04-07T07:02:31;43;39;
56175;PMS5003;63065;51.082;17.016;2023-04-07T07:04:56;42;38;
56175;PMS5003;63065;51.082;17.016;2023-04-07T07:07:22;48;42;
56175;PMS5003;63065;51.082;17.016;2023-04-07T07:09:47;47;43;
56175;PMS5003;63065;51.082;17.016;2023-04-07T07:12:13;43;40;
56175;PMS5003;63065;51.082;17.016;2023-04-07T07:14:38;39;36;
56175;PMS5003;63065;51.082;17.016;2023-04-07T07:17:03;40;33;
56175;PMS5003;63065;51.082;17.016;2023-04-07T07:19:29;32;29;
56175;PMS5003;63065;51.082;17.016;2023-04-07T07:21:54;38;36;
56175;PMS5003;63065;51.082;17.016;2023-04-07T07:24:19;42;38;
56175;PMS5003;63065;51.082;17.016;2023-04-07T07:26:44;38;36;
56175;PMS5003;63065;51.082;17.016;2023-04-07T07:29:10;41;34;
56175;PMS5003;63065;51.082;17.016;2023-04-07T07:31:36;36;31;
56175;PMS5003;63065;51.082;17.016;2023-04-07T07:34:02;41;41;
56175;PMS5003;63065;51.082;17.016;2023-04-07T07:36:27;35;32;
56175;PMS5003;63065;51.082;17.016;2023-04-07T07:38:52;36;33;
56175;PMS5003;63065;51.082;17.016;2023-04-07T07:41:18;36;32;
56175;PMS5003;63065;51.082;17.016;2023-04-07T07:43:43;34;33;
56175;PMS5003;63065;51.082;17.016;2023-04-07T07:46:08;35;34;
56175;PMS5003;63065;51.082;17.016;2023-04-07T07:48:34;33;33;
56175;PMS5003;63065;51.082;17.016;2023-04-07T07:51:00;34;32;
56175;PMS5003;63065;51.082;17.016;2023-04-07T07:53:26;33;33;
56175;PMS5003;63065;51.082;17.016;2023-04-07T07:55:51;29;29;
56175;PMS5003;63065;51.082;17.016;2023-04-07T07:58:17;38;35;
56175;PMS5003;63065;51.082;17.016;2023-04-07T08:00:42;44;40;
56175;PMS5003;63065;51.082;17.016;2023-04-07T08:03:08;34;32;
56175;PMS5003;63065;51.082;17.016;2023-04-07T08:05:33;37;37;
56175;PMS5003;63065;51.082;17.016;2023-04-07T08:07:58;39;33;
56175;PMS5003;63065;51.082;17.016;2023-04-07T08:10:24;37;30;
56175;PMS5003;63065;51.082;17.016;2023-04-07T08:12:49;38;31;
56175;PMS5003;63065;51.082;17.016;2023-04-07T08:15:15;32;30;
56175;PMS5003;63065;51.082;17.016;2023-04-07T08:17:40;36;34;
56175;PMS5003;63065;51.082;17.016;2023-04-07T08:20:06;31;28;
56175;PMS5003;63065;51.082;17.016;2023-04-07T08:22:31;42;39;
56175;PMS5003;63065;51.082;17.016;2023-04-07T08:24:56;24;24;
56175;PMS5003;63065;51.082;17.016;2023-04-07T08:27:22;32;30;
56175;PMS5003;63065;51.082;17.016;2023-04-07T08:29:50;34;29;
56175;PMS5003;63065;51.082;17.016;2023-04-07T08:32:13;30;26;
56175;PMS5003;63065;51.082;17.016;2023-04-07T08:34:38;35;29;
56175;PMS5003;63065;51.082;17.016;2023-04-07T08:37:03;32;30;
56175;PMS5003;63065;51.082;17.016;2023-04-07T08:39:29;30;29;
56175;PMS5003;63065;51.082;17.016;2023-04-07T08:41:54;29;29;
56175;PMS5003;63065;51.082;17.016;2023-04-07T08:44:20;40;33;
56175;PMS5003;63065;51.082;17.016;2023-04-07T08:46:46;29;28;
56175;PMS5003;63065;51.082;17.016;2023-04-07T08:49:11;26;26;
56175;PMS5003;63065;51.082;17.016;2023-04-07T08:51:37;34;28;
56175;PMS5003;63065;51.082;17.016;2023-04-07T08:54:03;36;30;
56175;PMS5003;63065;51.082;17.016;2023-04-07T08:56:28;34;33;
56175;PMS5003;63065;51.082;17.016;2023-04-07T08:58:53;33;31;
56175;PMS5003;63065;51.082;17.016;2023-04-07T09:01:19;38;34;
56175;PMS5003;63065;51.082;17.016;2023-04-07T09:03:44;30;27;
56175;PMS5003;63065;51.082;17.016;2023-04-07T09:06:10;29;26;
56175;PMS5003;63065;51.082;17.016;2023-04-07T09:08:35;27;25;
56175;PMS5003;63065;51.082;17.016;2023-04-07T09:11:01;28;28;
56175;PMS5003;63065;51.082;17.016;2023-04-07T09:13:26;32;31;
56175;PMS5003;63065;51.082;17.016;2023-04-07T09:15:51;30;29;
56175;PMS5003;63065;51.082;17.016;2023-04-07T09:18:16;31;29;
56175;PMS5003;63065;51.082;17.016;2023-04-07T09:23:07;32;29;
56175;PMS5003;63065;51.082;17.016;2023-04-07T09:25:33;28;27;
56175;PMS5003;63065;51.082;17.016;2023-04-07T09:27:58;40;36;
56175;PMS5003;63065;51.082;17.016;2023-04-07T09:30:24;35;34;
56175;PMS5003;63065;51.082;17.016;2023-04-07T09:32:49;36;33;
56175;PMS5003;63065;51.082;17.016;2023-04-07T09:35:15;28;24;
56175;PMS5003;63065;51.082;17.016;2023-04-07T09:37:40;31;28;
56175;PMS5003;63065;51.082;17.016;2023-04-07T09:40:06;29;29;
56175;PMS5003;63065;51.082;17.016;2023-04-07T09:42:31;37;31;
56175;PMS5003;63065;51.082;17.016;2023-04-07T09:44:57;26;26;
56175;PMS5003;63065;51.082;17.016;2023-04-07T09:47:24;34;29;
56175;PMS5003;63065;51.082;17.016;2023-04-07T09:49:48;32;28;
56175;PMS5003;63065;51.082;17.016;2023-04-07T09:52:13;36;32;
56175;PMS5003;63065;51.082;17.016;2023-04-07T09:54:40;26;23;
56175;PMS5003;63065;51.082;17.016;2023-04-07T09:57:05;24;24;
56175;PMS5003;63065;51.082;17.016;2023-04-07T09:59:30;31;29;
56175;PMS5003;63065;51.082;17.016;2023-04-07T10:01:55;37;29;
56175;PMS5003;63065;51.082;17.016;2023-04-07T10:04:20;33;27;
56175;PMS5003;63065;51.082;17.016;2023-04-07T10:06:46;30;27;
56175;PMS5003;63065;51.082;17.016;2023-04-07T10:09:12;28;24;
56175;PMS5003;63065;51.082;17.016;2023-04-07T10:11:37;33;28;
56175;PMS5003;63065;51.082;17.016;2023-04-07T10:14:03;25;25;
56175;PMS5003;63065;51.082;17.016;2023-04-07T10:16:29;38;36;
56175;PMS5003;63065;51.082;17.016;2023-04-07T10:18:54;34;29;
56175;PMS5003;63065;51.082;17.016;2023-04-07T10:21:19;24;24;
56175;PMS5003;63065;51.082;17.016;2023-04-07T10:23:48;28;26;
56175;PMS5003;63065;51.082;17.016;2023-04-07T10:26:10;24;23;
56175;PMS5003;63065;51.082;17.016;2023-04-07T10:28:36;28;25;
56175;PMS5003;63065;51.082;17.016;2023-04-07T10:31:01;26;26;
56175;PMS5003;63065;51.082;17.016;2023-04-07T10:38:18;28;27;
56175;PMS5003;63065;51.082;17.016;2023-04-07T10:40:43;32;29;
56175;PMS5003;63065;51.082;17.016;2023-04-07T10:43:08;30;28;
56175;PMS5003;63065;51.082;17.016;2023-04-07T10:50:24;31;27;
56175;PMS5003;63065;51.082;17.016;2023-04-07T10:53:04;31;30;
56175;PMS5003;63065;51.082;17.016;2023-04-07T10:57:42;22;22;
56175;PMS5003;63065;51.082;17.016;2023-04-07T11:02:31;32;28;
56175;PMS5003;63065;51.082;17.016;2023-04-07T11:04:55;35;32;
56175;PMS5003;63065;51.082;17.016;2023-04-07T11:07:22;32;30;
56175;PMS5003;63065;51.082;17.016;2023-04-07T11:09:46;35;33;
56175;PMS5003;63065;51.082;17.016;2023-04-07T11:14:37;32;28;
56175;PMS5003;63065;51.082;17.016;2023-04-07T11:17:02;32;32;
56175;PMS5003;63065;51.082;17.016;2023-04-07T11:19:28;28;26;
56175;PMS5003;63065;51.082;17.016;2023-04-07T11:26:45;30;28;
56175;PMS5003;63065;51.082;17.016;2023-04-07T11:29:10;28;26;
56175;PMS5003;63065;51.082;17.016;2023-04-07T11:31:35;31;27;
56175;PMS5003;63065;51.082;17.016;2023-04-07T11:34:01;28;28;
56175;PMS5003;63065;51.082;17.016;2023-04-07T11:36:27;35;32;
56175;PMS5003;63065;51.082;17.016;2023-04-07T11:38:51;34;30;
56175;PMS5003;63065;51.082;17.016;2023-04-07T11:41:17;35;31;
56175;PMS5003;63065;51.082;17.016;2023-04-07T11:43:42;26;24;
56175;PMS5003;63065;51.082;17.016;2023-04-07T11:46:08;28;26;
56175;PMS5003;63065;51.082;17.016;2023-04-07T11:48:33;29;27;
56175;PMS5003;63065;51.082;17.016;2023-04-07T11:50:58;34;31;
56175;PMS5003;63065;51.082;17.016;2023-04-07T11:53:24;34;32;
56175;PMS5003;63065;51.082;17.016;2023-04-07T11:55:48;36;35;
56175;PMS5003;63065;51.082;17.016;2023-04-07T11:58:14;35;29;
56175;PMS5003;63065;51.082;17.016;2023-04-07T12:07:55;30;29;
56175;PMS5003;63065;51.082;17.016;2023-04-07T12:10:21;32;30;
56175;PMS5003;63065;51.082;17.016;2023-04-07T12:12:46;36;33;
56175;PMS5003;63065;51.082;17.016;2023-04-07T12:15:11;30;28;
56175;PMS5003;63065;51.082;17.016;2023-04-07T12:17:37;33;29;
56175;PMS5003;63065;51.082;17.016;2023-04-07T12:20:02;33;28;
56175;PMS5003;63065;51.082;17.016;2023-04-07T12:22:27;37;33;
56175;PMS5003;63065;51.082;17.016;2023-04-07T12:24:53;35;33;
56175;PMS5003;63065;51.082;17.016;2023-04-07T12:27:19;32;32;
56175;PMS5003;63065;51.082;17.016;2023-04-07T12:29:44;36;31;
56175;PMS5003;63065;51.082;17.016;2023-04-07T12:32:09;28;28;
56175;PMS5003;63065;51.082;17.016;2023-04-07T12:34:35;27;27;
56175;PMS5003;63065;51.082;17.016;2023-04-07T12:37:01;36;27;
56175;PMS5003;63065;51.082;17.016;2023-04-07T12:39:27;27;26;
56175;PMS5003;63065;51.082;17.016;2023-04-07T12:41:52;30;26;
56175;PMS5003;63065;51.082;17.016;2023-04-07T12:44:18;32;28;
56175;PMS5003;63065;51.082;17.016;2023-04-07T12:46:43;23;23;
56175;PMS5003;63065;51.082;17.016;2023-04-07T12:49:09;34;27;
56175;PMS5003;63065;51.082;17.016;2023-04-07T12:51:34;29;29;
56175;PMS5003;63065;51.082;17.016;2023-04-07T12:54:00;31;28;
56175;PMS5003;63065;51.082;17.016;2023-04-07T12:56:25;28;26;
56175;PMS5003;63065;51.082;17.016;2023-04-07T12:58:50;30;27;
56175;PMS5003;63065;51.082;17.016;2023-04-07T13:01:15;35;34;
56175;PMS5003;63065;51.082;17.016;2023-04-07T13:03:40;34;29;
56175;PMS5003;63065;51.082;17.016;2023-04-07T13:06:05;29;29;
56175;PMS5003;63065;51.082;17.016;2023-04-07T13:08:31;29;26;
56175;PMS5003;63065;51.082;17.016;2023-04-07T13:10:56;31;27;
56175;PMS5003;63065;51.082;17.016;2023-04-07T13:13:21;32;31;
56175;PMS5003;63065;51.082;17.016;2023-04-07T13:15:47;30;24;
56175;PMS5003;63065;51.082;17.016;2023-04-07T13:18:13;29;27;
56175;PMS5003;63065;51.082;17.016;2023-04-07T13:20:38;30;29;
56175;PMS5003;63065;51.082;17.016;2023-04-07T13:23:04;30;28;
56175;PMS5003;63065;51.082;17.016;2023-04-07T13:25:29;29;29;
56175;PMS5003;63065;51.082;17.016;2023-04-07T13:27:55;28;26;
56175;PMS5003;63065;51.082;17.016;2023-04-07T13:30:20;38;37;
56175;PMS5003;63065;51.082;17.016;2023-04-07T13:32:45;29;27;
56175;PMS5003;63065;51.082;17.016;2023-04-07T13:35:11;33;31;
56175;PMS5003;63065;51.082;17.016;2023-04-07T13:37:36;32;30;
56175;PMS5003;63065;51.082;17.016;2023-04-07T13:40:01;36;34;
56175;PMS5003;63065;51.082;17.016;2023-04-07T13:42:26;31;31;
56175;PMS5003;63065;51.082;17.016;2023-04-07T13:44:51;31;29;
56175;PMS5003;63065;51.082;17.016;2023-04-07T13:47:17;37;36;
56175;PMS5003;63065;51.082;17.016;2023-04-07T13:49:43;37;33;
56175;PMS5003;63065;51.082;17.016;2023-04-07T13:52:09;40;34;
56175;PMS5003;63065;51.082;17.016;2023-04-07T13:54:35;33;31;
56175;PMS5003;63065;51.082;17.016;2023-04-07T13:57:01;30;28;
56175;PMS5003;63065;51.082;17.016;2023-04-07T13:59:26;38;33;
56175;PMS5003;63065;51.082;17.016;2023-04-07T14:01:51;30;29;
56175;PMS5003;63065;51.082;17.016;2023-04-07T14:04:16;34;31;
56175;PMS5003;63065;51.082;17.016;2023-04-07T14:06:42;30;30;
56175;PMS5003;63065;51.082;17.016;2023-04-07T14:09:07;26;26;
56175;PMS5003;63065;51.082;17.016;2023-04-07T14:11:32;28;28;
56175;PMS5003;63065;51.082;17.016;2023-04-07T14:13:57;35;31;
56175;PMS5003;63065;51.082;17.016;2023-04-07T14:16:23;35;31;
56175;PMS5003;63065;51.082;17.016;2023-04-07T14:18:48;31;28;
56175;PMS5003;63065;51.082;17.016;2023-04-07T14:21:13;29;26;
56175;PMS5003;63065;51.082;17.016;2023-04-07T14:23:38;36;32;
56175;PMS5003;63065;51.082;17.016;2023-04-07T14:26:04;36;32;
56175;PMS5003;63065;51.082;17.016;2023-04-07T14:28:29;36;29;
56175;PMS5003;63065;51.082;17.016;2023-04-07T14:30:54;33;31;
56175;PMS5003;63065;51.082;17.016;2023-04-07T14:33:20;33;32;
56175;PMS5003;63065;51.082;17.016;2023-04-07T14:35:45;34;31;
56175;PMS5003;63065;51.082;17.016;2023-04-07T14:38:11;36;36;
56175;PMS5003;63065;51.082;17.016;2023-04-07T14:40:37;37;34;
56175;PMS5003;63065;51.082;17.016;2023-04-07T14:43:02;29;26;
56175;PMS5003;63065;51.082;17.016;2023-04-07T14:45:28;37;35;
56175;PMS5003;63065;51.082;17.016;2023-04-07T14:47:53;30;30;
56175;PMS5003;63065;51.082;17.016;2023-04-07T14:50:19;32;27;
56175;PMS5003;63065;51.082;17.016;2023-04-07T14:52:44;34;27;
56175;PMS5003;63065;51.082;17.016;2023-04-07T14:55:09;36;33;
56175;PMS5003;63065;51.082;17.016;2023-04-07T14:57:35;34;33;
56175;PMS5003;63065;51.082;17.016;2023-04-07T15:00:01;33;30;
56175;PMS5003;63065;51.082;17.016;2023-04-07T15:02:26;36;33;
56175;PMS5003;63065;51.082;17.016;2023-04-07T15:04:52;30;29;
56175;PMS5003;63065;51.082;17.016;2023-04-07T15:07:17;32;31;
56175;PMS5003;63065;51.082;17.016;2023-04-07T15:09:43;31;30;
56175;PMS5003;63065;51.082;17.016;2023-04-07T15:12:08;31;30;
56175;PMS5003;63065;51.082;17.016;2023-04-07T15:14:33;33;32;
56175;PMS5003;63065;51.082;17.016;2023-04-07T15:16:59;37;33;
56175;PMS5003;63065;51.082;17.016;2023-04-07T15:19:25;32;28;
56175;PMS5003;63065;51.082;17.016;2023-04-07T15:21:50;30;30;
56175;PMS5003;63065;51.082;17.016;2023-04-07T15:24:15;34;33;
56175;PMS5003;63065;51.082;17.016;2023-04-07T15:26:40;30;28;
56175;PMS5003;63065;51.082;17.016;2023-04-07T15:29:06;33;30;
56175;PMS5003;63065;51.082;17.016;2023-04-07T15:31:31;35;31;
56175;PMS5003;63065;51.082;17.016;2023-04-07T15:33:57;42;37;
56175;PMS5003;63065;51.082;17.016;2023-04-07T15:36:23;38;32;
56175;PMS5003;63065;51.082;17.016;2023-04-07T15:38:48;37;33;
56175;PMS5003;63065;51.082;17.016;2023-04-07T15:41:13;37;32;
56175;PMS5003;63065;51.082;17.016;2023-04-07T15:43:38;36;35;
56175;PMS5003;63065;51.082;17.016;2023-04-07T15:46:04;47;45;
56175;PMS5003;63065;51.082;17.016;2023-04-07T15:48:29;39;34;
56175;PMS5003;63065;51.082;17.016;2023-04-07T15:50:55;34;34;
56175;PMS5003;63065;51.082;17.016;2023-04-07T15:53:20;38;37;
56175;PMS5003;63065;51.082;17.016;2023-04-07T15:55:45;33;33;
56175;PMS5003;63065;51.082;17.016;2023-04-07T15:58:12;35;35;
56175;PMS5003;63065;51.082;17.016;2023-04-07T16:00:37;38;36;
56175;PMS5003;63065;51.082;17.016;2023-04-07T16:03:01;39;37;
56175;PMS5003;63065;51.082;17.016;2023-04-07T16:05:27;37;35;
56175;PMS5003;63065;51.082;17.016;2023-04-07T16:07:52;37;35;
56175;PMS5003;63065;51.082;17.016;2023-04-07T16:10:18;36;30;
56175;PMS5003;63065;51.082;17.016;2023-04-07T16:12:43;32;32;
56175;PMS5003;63065;51.082;17.016;2023-04-07T16:15:08;36;33;
56175;PMS5003;63065;51.082;17.016;2023-04-07T16:17:34;35;35;
56175;PMS5003;63065;51.082;17.016;2023-04-07T16:20:00;52;39;